Time;durP1;ratioP1;P1;durP2;ratioP2;P2;SDS_P1;SDS_P2;PMS_P1;PMS_P2;Temp;Humidity;BMP_temperature;BMP_pressure;BME280_temperature;BME280_humidity;BME280_pressure;Samples;Min_cycle;Max_cycle;Signal;HPM_P1;HPM_P2
2022/05/03 00:05:53;;;;;;;26.95;16.20;;;;;;;;;;4334347;80;28529;-77
2022/05/03 00:11:56;;;;;;;25.20;16.13;;;;;;;;;;4328363;80;28528;-77
2022/05/03 00:17:57;;;;;;;27.75;16.90;;;;;;;;;;4217531;82;28567;-77
2022/05/03 00:23:58;;;;;;;31.55;17.05;;;;;;;;;;4221088;82;28613;-76
2022/05/03 00:29:59;;;;;;;28.52;16.27;;;;;;;;;;4210214;82;28527;-77
2022/05/03 00:36:00;;;;;;;28.15;15.30;;;;;;;;;;4182675;82;28499;-77
2022/05/03 00:42:03;;;;;;;26.00;16.25;;;;;;;;;;4197832;82;28511;-77
2022/05/03 00:48:09;;;;;;;26.62;14.98;;;;;;;;;;4202453;82;28498;-79
2022/05/03 00:54:11;;;;;;;28.70;16.20;;;;;;;;;;4181986;83;28526;-78
2022/05/03 01:00:14;;;;;;;25.43;16.30;;;;;;;;;;4199815;82;28574;-75
2022/05/03 01:06:17;;;;;;;27.45;16.45;;;;;;;;;;4265302;81;28530;-76
2022/05/03 01:12:26;;;;;;;27.90;16.75;;;;;;;;;;4304867;81;28527;-75
2022/05/03 01:18:29;;;;;;;22.52;14.50;;;;;;;;;;4299368;80;28587;-76
2022/05/03 01:24:37;;;;;;;23.47;14.50;;;;;;;;;;4304217;80;28567;-76
2022/05/03 01:30:40;;;;;;;27.00;13.93;;;;;;;;;;4417014;78;28578;-76
2022/05/03 01:36:44;;;;;;;25.50;15.55;;;;;;;;;;4468919;79;28524;-76
2022/05/03 01:42:46;;;;;;;24.35;14.45;;;;;;;;;;4467594;79;28524;-77
2022/05/03 01:55:03;;;;;;;;;;;;;;;;;;4441195;78;28563;-75
2022/05/03 02:01:24;;;;;;;24.20;14.65;;;;;;;;;;4454264;78;20220;-75
2022/05/03 02:07:36;;;;;;;21.97;14.55;;;;;;;;;;4440352;78;28550;-75
2022/05/03 02:20:10;;;;;;;22.27;13.75;;;;;;;;;;4460158;77;28574;-74
2022/05/03 02:26:15;;;;;;;24.57;13.22;;;;;;;;;;4470939;77;28526;-78
2022/05/03 02:32:18;;;;;;;23.57;14.53;;;;;;;;;;4478810;77;28539;-76
2022/05/03 02:38:20;;;;;;;20.97;14.05;;;;;;;;;;4472896;77;28549;-76
2022/05/03 02:44:21;;;;;;;23.02;14.73;;;;;;;;;;4486430;77;28558;-75
2022/05/03 02:50:28;;;;;;;23.30;14.80;;;;;;;;;;4438565;78;28509;-75
2022/05/03 02:56:30;;;;;;;;;;;;;;;;;;4305086;82;28516;-74
2022/05/03 03:02:36;;;;;;;21.70;13.65;;;;;;;;;;4323440;80;20282;-76
2022/05/03 03:08:41;;;;;;;20.88;13.15;;;;;;;;;;4254809;81;28547;-75
2022/05/03 03:14:44;;;;;;;18.43;11.47;;;;;;;;;;4278227;81;28556;-75
2022/05/03 03:20:47;;;;;;;24.25;14.13;;;;;;;;;;4249045;81;28986;-75
2022/05/03 03:26:49;;;;;;;20.88;13.53;;;;;;;;;;4306663;81;28549;-76
2022/05/03 03:32:51;;;;;;;22.70;14.10;;;;;;;;;;4259133;81;28463;-75
2022/05/03 03:38:52;;;;;;;22.50;14.15;;;;;;;;;;4305744;81;28549;-75
2022/05/03 03:44:53;;;;;;;24.80;15.88;;;;;;;;;;4314233;81;28516;-75
2022/05/03 03:50:55;;;;;;;24.95;15.32;;;;;;;;;;4291850;80;28510;-76
2022/05/03 03:56:56;;;;;;;22.93;14.40;;;;;;;;;;4289911;81;28496;-75
2022/05/03 04:02:57;;;;;;;23.98;14.90;;;;;;;;;;4281724;80;28506;-75
2022/05/03 04:08:58;;;;;;;22.67;14.33;;;;;;;;;;4278754;81;28526;-74
2022/05/03 04:14:59;;;;;;;24.23;15.60;;;;;;;;;;4267735;81;28509;-74
2022/05/03 04:21:00;;;;;;;24.85;15.53;;;;;;;;;;4255743;81;28443;-74
2022/05/03 04:27:01;;;;;;;28.77;17.23;;;;;;;;;;4256191;81;28556;-75
2022/05/03 04:33:02;;;;;;;25.15;17.05;;;;;;;;;;4267960;81;28561;-74
2022/05/03 04:39:03;;;;;;;28.92;18.25;;;;;;;;;;4288210;81;28498;-75
2022/05/03 04:45:04;;;;;;;30.00;18.98;;;;;;;;;;4312121;80;28459;-74
2022/05/03 04:51:06;;;;;;;30.52;19.35;;;;;;;;;;4310164;80;28526;-76
2022/05/03 04:57:07;;;;;;;26.62;17.95;;;;;;;;;;4306983;81;28576;-73
2022/05/03 05:03:08;;;;;;;28.25;17.77;;;;;;;;;;4312041;80;28578;-76
2022/05/03 05:09:09;;;;;;;28.30;17.00;;;;;;;;;;4322897;80;28493;-75
2022/05/03 05:15:10;;;;;;;25.12;16.02;;;;;;;;;;4336647;80;28522;-74
2022/05/03 05:21:12;;;;;;;25.70;17.23;;;;;;;;;;4318093;80;28528;-75
2022/05/03 05:27:13;;;;;;;26.73;16.07;;;;;;;;;;4325112;80;28555;-77
2022/05/03 05:33:14;;;;;;;22.07;14.80;;;;;;;;;;4345869;80;28488;-75
2022/05/03 05:39:15;;;;;;;20.92;14.15;;;;;;;;;;4357716;80;28516;-75
2022/05/03 05:45:17;;;;;;;20.88;12.75;;;;;;;;;;4348152;80;28597;-76
2022/05/03 05:51:17;;;;;;;18.92;12.73;;;;;;;;;;4357830;80;28462;-78
2022/05/03 05:57:19;;;;;;;17.95;12.13;;;;;;;;;;4353615;80;28529;-76
2022/05/03 06:03:22;;;;;;;20.68;11.95;;;;;;;;;;4350271;80;28533;-76
2022/05/03 06:09:23;;;;;;;17.65;12.07;;;;;;;;;;4304313;80;28524;-78
2022/05/03 06:15:24;;;;;;;18.23;11.85;;;;;;;;;;4292383;81;28503;-80
2022/05/03 06:21:25;;;;;;;17.37;11.78;;;;;;;;;;4309357;81;28536;-79
2022/05/03 06:27:26;;;;;;;17.62;11.57;;;;;;;;;;4314530;81;28525;-80
2022/05/03 06:33:27;;;;;;;19.42;11.68;;;;;;;;;;4318579;81;28527;-78
2022/05/03 06:39:28;;;;;;;18.12;12.25;;;;;;;;;;4292948;81;28555;-80
2022/05/03 06:45:29;;;;;;;16.45;11.68;;;;;;;;;;4312395;80;28518;-80
2022/05/03 06:51:30;;;;;;;17.17;11.40;;;;;;;;;;4319499;80;28490;-78
2022/05/03 06:57:31;;;;;;;17.30;11.40;;;;;;;;;;4266440;80;28504;-76
2022/05/03 07:03:32;;;;;;;16.62;10.80;;;;;;;;;;4309358;81;28513;-79
2022/05/03 07:09:33;;;;;;;16.62;11.33;;;;;;;;;;4338075;80;28490;-77
2022/05/03 07:15:33;;;;;;;15.55;10.85;;;;;;;;;;4322485;82;28605;-79
2022/05/03 07:27:54;;;;;;;15.48;11.08;;;;;;;;;;4309183;80;28511;-79
2022/05/03 07:33:56;;;;;;;17.12;11.20;;;;;;;;;;4301469;81;28512;-82
2022/05/03 07:39:57;;;;;;;15.53;10.70;;;;;;;;;;4302556;80;28524;-76
2022/05/03 07:45:58;;;;;;;16.50;10.88;;;;;;;;;;4311385;80;28479;-81
2022/05/03 07:51:59;;;;;;;13.98;10.15;;;;;;;;;;4319341;81;28482;-81
2022/05/03 07:58:00;;;;;;;15.03;10.28;;;;;;;;;;4292874;80;28482;-81
2022/05/03 08:04:01;;;;;;;14.40;9.85;;;;;;;;;;4292854;80;28565;-80
2022/05/03 08:10:05;;;;;;;16.00;9.73;;;;;;;;;;4300360;80;28501;-80
2022/05/03 08:16:08;;;;;;;14.87;11.10;;;;;;;;;;4309904;80;28540;-80
2022/05/03 08:22:09;;;;;;;14.68;11.48;;;;;;;;;;4314959;80;28973;-80
2022/05/03 08:28:12;;;;;;;17.50;11.73;;;;;;;;;;4327465;80;28520;-81
2022/05/03 08:34:13;;;;;;;16.20;12.40;;;;;;;;;;4480447;77;28481;-81
2022/05/03 08:46:36;;;;;;;14.75;10.65;;;;;;;;;;4468232;77;28537;-81
2022/05/03 08:52:48;;;;;;;15.80;11.20;;;;;;;;;;4479933;77;28667;-80
2022/05/03 08:58:48;;;;;;;15.23;11.08;;;;;;;;;;4426702;77;28584;-81
2022/05/03 09:04:49;;;;;;;15.98;12.23;;;;;;;;;;4420451;79;28560;-81
2022/05/03 09:10:51;;;;;;;14.53;10.72;;;;;;;;;;4443983;77;28609;-82
2022/05/03 09:16:52;;;;;;;14.25;10.35;;;;;;;;;;4453724;77;28523;-81
2022/05/03 09:29:14;;;;;;;11.45;8.73;;;;;;;;;;4438772;77;28510;-81
2022/05/03 09:35:27;;;;;;;11.88;9.65;;;;;;;;;;4496300;78;28509;-80
2022/05/03 09:41:28;;;;;;;11.60;8.90;;;;;;;;;;4472601;77;28526;-80
2022/05/03 09:47:30;;;;;;;10.00;8.28;;;;;;;;;;4499203;77;28538;-81
2022/05/03 09:53:32;;;;;;;12.60;9.50;;;;;;;;;;4494884;77;28530;-80
2022/05/03 09:59:33;;;;;;;11.10;8.88;;;;;;;;;;4476349;78;28535;-81
2022/05/03 10:05:34;;;;;;;11.93;10.10;;;;;;;;;;4469867;77;28565;-81
2022/05/03 10:11:36;;;;;;;14.45;10.70;;;;;;;;;;4471747;78;28541;-81
2022/05/03 10:24:09;;;;;;;16.97;10.75;;;;;;;;;;4493448;78;28496;-80
2022/05/03 10:30:15;;;;;;;15.50;12.30;;;;;;;;;;4488451;78;28496;-80
2022/05/03 10:36:35;;;;;;;14.45;10.95;;;;;;;;;;4490939;78;28530;-81
2022/05/03 10:42:36;;;;;;;15.58;11.00;;;;;;;;;;4469029;78;28501;-81
2022/05/03 10:48:37;;;;;;;16.15;11.55;;;;;;;;;;4491117;78;28536;-80
2022/05/03 10:54:56;;;;;;;12.68;10.03;;;;;;;;;;4471654;78;28510;-80
2022/05/03 11:01:04;;;;;;;10.00;8.28;;;;;;;;;;4490013;78;28534;-81
2022/05/03 11:07:05;;;;;;;8.70;6.90;;;;;;;;;;4481218;77;28488;-82
2022/05/03 11:13:24;;;;;;;8.25;6.30;;;;;;;;;;4456938;78;28503;-81
2022/05/03 11:19:25;;;;;;;6.85;5.70;;;;;;;;;;4496973;78;28558;-80
2022/05/03 11:25:26;;;;;;;8.73;7.83;;;;;;;;;;4482959;77;28484;-84
2022/05/03 11:31:27;;;;;;;10.53;8.30;;;;;;;;;;4462697;77;28531;-81
2022/05/03 11:37:28;;;;;;;14.20;8.85;;;;;;;;;;4483164;77;28496;-81
2022/05/03 11:43:31;;;;;;;11.75;8.63;;;;;;;;;;4498147;77;28562;-81
2022/05/03 11:49:32;;;;;;;11.22;8.30;;;;;;;;;;4482163;77;28553;-80
2022/05/03 12:02:13;;;;;;;8.90;7.62;;;;;;;;;;4454090;78;28579;-80
2022/05/03 12:08:19;;;;;;;9.53;7.53;;;;;;;;;;4468377;78;28559;-77
2022/05/03 12:14:36;;;;;;;9.67;7.40;;;;;;;;;;4480359;78;28509;-78
2022/05/03 12:20:46;;;;;;;9.48;7.47;;;;;;;;;;4482626;78;28574;-81
2022/05/03 12:26:47;;;;;;;12.18;7.15;;;;;;;;;;4451721;78;28561;-81
2022/05/03 12:32:48;;;;;;;10.65;7.95;;;;;;;;;;4473188;78;28531;-80
2022/05/03 12:38:49;;;;;;;9.35;6.83;;;;;;;;;;4477582;78;28512;-81
2022/05/03 12:44:52;;;;;;;9.83;7.12;;;;;;;;;;4505792;77;28547;-75
2022/05/03 12:50:55;;;;;;;9.20;7.03;;;;;;;;;;4483694;78;28581;-75
2022/05/03 13:03:15;;;;;;;9.43;6.90;;;;;;;;;;4468190;78;28523;-75
2022/05/03 13:09:16;;;;;;;11.18;7.20;;;;;;;;;;4461139;78;28520;-75
2022/05/03 13:15:17;;;;;;;11.22;7.97;;;;;;;;;;4432913;78;28555;-76
2022/05/03 13:21:18;;;;;;;13.53;8.48;;;;;;;;;;4447637;78;28526;-76
2022/05/03 13:27:21;;;;;;;12.07;7.50;;;;;;;;;;4445002;78;28553;-75
2022/05/03 13:33:22;;;;;;;10.23;6.78;;;;;;;;;;4447591;78;28555;-76
2022/05/03 13:45:44;;;;;;;9.80;6.80;;;;;;;;;;4463420;78;28575;-75
2022/05/03 13:51:45;;;;;;;10.60;7.50;;;;;;;;;;4442296;78;28585;-75
2022/05/03 13:57:47;;;;;;;10.60;7.67;;;;;;;;;;4445252;78;28778;-75
2022/05/03 14:03:52;;;;;;;11.40;8.58;;;;;;;;;;4454275;77;28596;-73
2022/05/03 14:09:53;;;;;;;9.10;7.78;;;;;;;;;;4494844;77;28580;-74
2022/05/03 14:15:54;;;;;;;13.30;10.10;;;;;;;;;;4506184;77;28527;-74
2022/05/03 14:21:55;;;;;;;12.53;9.43;;;;;;;;;;4488093;77;28522;-76
2022/05/03 14:27:56;;;;;;;12.07;9.20;;;;;;;;;;4497150;78;28499;-77
2022/05/03 14:33:56;;;;;;;10.32;8.13;;;;;;;;;;4487380;77;28499;-81
2022/05/03 14:39:58;;;;;;;9.43;8.43;;;;;;;;;;4490397;77;28594;-81
2022/05/03 14:45:59;;;;;;;10.30;8.10;;;;;;;;;;4493865;77;28530;-80
2022/05/03 14:52:05;;;;;;;10.30;7.95;;;;;;;;;;4494291;77;28581;-84
2022/05/03 15:04:22;;;;;;;9.85;7.80;;;;;;;;;;4482530;77;28534;-81
2022/05/03 15:10:40;;;;;;;10.10;6.55;;;;;;;;;;4453757;77;28587;-83
2022/05/03 15:17:06;;;;;;;7.25;6.00;;;;;;;;;;4301254;81;28547;-81
2022/05/03 15:29:28;;;;;;;10.05;5.50;;;;;;;;;;4303118;81;28572;-81
2022/05/03 15:35:30;;;;;;;8.30;5.70;;;;;;;;;;4294498;81;28929;-81
2022/05/03 15:41:31;;;;;;;6.53;5.40;;;;;;;;;;4314885;81;28516;-81
2022/05/03 15:47:33;;;;;;;8.48;5.33;;;;;;;;;;4433490;79;28525;-80
2022/05/03 15:53:35;;;;;;;6.92;5.65;;;;;;;;;;4498324;77;28537;-83
2022/05/03 15:59:36;;;;;;;7.25;5.28;;;;;;;;;;4492758;78;28566;-82
2022/05/03 16:05:37;;;;;;;8.15;5.95;;;;;;;;;;4499063;77;28549;-81
2022/05/03 16:11:38;;;;;;;6.33;4.95;;;;;;;;;;4483252;78;28480;-80
2022/05/03 16:17:39;;;;;;;6.10;5.40;;;;;;;;;;4499602;77;28486;-79
2022/05/03 16:23:40;;;;;;;6.30;5.30;;;;;;;;;;4477082;78;28582;-78
2022/05/03 16:29:42;;;;;;;8.58;5.15;;;;;;;;;;4446633;79;28480;-81
2022/05/03 16:35:50;;;;;;;7.70;5.22;;;;;;;;;;4402201;79;28532;-83
2022/05/03 16:48:04;;;;;;;8.15;5.30;;;;;;;;;;4419565;78;28530;-84
2022/05/03 16:54:05;;;;;;;7.40;4.65;;;;;;;;;;4497346;77;28503;-83
2022/05/03 17:00:06;;;;;;;6.92;5.10;;;;;;;;;;4485226;77;28571;-83
2022/05/03 17:06:07;;;;;;;9.35;4.80;;;;;;;;;;4491138;77;28563;-82
2022/05/03 17:12:09;;;;;;;6.53;4.78;;;;;;;;;;4499084;77;28503;-83
2022/05/03 17:18:10;;;;;;;7.15;4.97;;;;;;;;;;4483434;77;28523;-84
2022/05/03 17:24:11;;;;;;;8.28;5.03;;;;;;;;;;4507295;77;28539;-83
2022/05/03 17:30:15;;;;;;;8.43;5.72;;;;;;;;;;4508201;77;28472;-86
2022/05/03 17:36:16;;;;;;;9.85;6.12;;;;;;;;;;4431465;77;28528;-85
2022/05/03 17:42:17;;;;;;;9.28;5.08;;;;;;;;;;4481534;77;28542;-82
2022/05/03 17:48:18;;;;;;;6.35;4.12;;;;;;;;;;4488473;77;28636;-83
2022/05/03 17:54:19;;;;;;;7.85;4.53;;;;;;;;;;4452504;77;28615;-85
2022/05/03 18:00:22;;;;;;;11.00;5.33;;;;;;;;;;4491522;77;28540;-87
2022/05/03 18:06:25;;;;;;;8.78;4.50;;;;;;;;;;4486251;77;28528;-87
2022/05/03 18:12:25;;;;;;;6.80;3.92;;;;;;;;;;4490078;77;28514;-86
2022/05/03 18:18:26;;;;;;;6.33;4.40;;;;;;;;;;4472976;77;28554;-87
2022/05/03 18:24:27;;;;;;;6.22;4.80;;;;;;;;;;4479177;77;28563;-87
2022/05/03 18:30:29;;;;;;;7.12;4.20;;;;;;;;;;4494249;77;28510;-88
2022/05/03 18:36:31;;;;;;;7.12;4.22;;;;;;;;;;4489748;77;28543;-78
2022/05/03 18:42:31;;;;;;;8.28;4.72;;;;;;;;;;4495883;77;28541;-80
2022/05/03 18:48:34;;;;;;;7.05;4.97;;;;;;;;;;4479307;77;28464;-81
2022/05/03 19:00:57;;;;;;;7.00;5.28;;;;;;;;;;4485584;77;28645;-82
2022/05/03 19:06:58;;;;;;;8.93;5.28;;;;;;;;;;4482746;77;28479;-80
2022/05/03 19:13:03;;;;;;;7.62;5.20;;;;;;;;;;4409150;78;28526;-84
2022/05/03 19:19:06;;;;;;;8.83;5.08;;;;;;;;;;4469516;78;28459;-82
2022/05/03 19:31:26;;;;;;;6.75;4.70;;;;;;;;;;4475098;78;28509;-87
2022/05/03 19:37:27;;;;;;;9.35;5.53;;;;;;;;;;4473335;78;28486;-86
2022/05/03 19:43:28;;;;;;;6.53;4.12;;;;;;;;;;4471807;79;28463;-87
2022/05/03 19:49:29;;;;;;;6.17;4.62;;;;;;;;;;4470652;78;28490;-81
2022/05/03 19:55:30;;;;;;;7.70;4.65;;;;;;;;;;4469357;78;28521;-84
2022/05/03 20:01:31;;;;;;;9.78;5.75;;;;;;;;;;4470669;78;28513;-85
2022/05/03 20:07:37;;;;;;;11.30;5.58;;;;;;;;;;4476075;78;28554;-88
2022/05/03 20:13:35;;;;;;;8.85;5.58;;;;;;;;;;4437770;78;28512;-83
2022/05/03 20:19:37;;;;;;;10.38;6.40;;;;;;;;;;4468689;78;28512;-83
2022/05/03 20:25:38;;;;;;;12.50;7.87;;;;;;;;;;4473660;78;28480;-82
2022/05/03 20:31:40;;;;;;;10.65;7.12;;;;;;;;;;4458841;78;28538;-81
2022/05/03 20:37:41;;;;;;;12.07;8.13;;;;;;;;;;4463951;78;28490;-83
2022/05/03 20:43:44;;;;;;;11.97;8.33;;;;;;;;;;4472183;78;28563;-82
2022/05/03 20:49:46;;;;;;;12.10;8.08;;;;;;;;;;4476182;78;29142;-82
2022/05/03 20:55:48;;;;;;;10.43;7.20;;;;;;;;;;4469253;78;28597;-83
2022/05/03 21:01:49;;;;;;;13.95;9.05;;;;;;;;;;4454204;78;28553;-83
2022/05/03 21:07:51;;;;;;;12.93;8.70;;;;;;;;;;4475176;78;28541;-84
2022/05/03 21:13:52;;;;;;;11.70;8.10;;;;;;;;;;4494539;77;28585;-82
2022/05/03 21:19:53;;;;;;;15.43;9.08;;;;;;;;;;4460366;77;28547;-82
2022/05/03 21:25:54;;;;;;;15.28;9.83;;;;;;;;;;4482299;78;28510;-81
2022/05/03 21:31:55;;;;;;;13.38;8.65;;;;;;;;;;4494239;77;28515;-81
2022/05/03 21:37:57;;;;;;;11.57;8.08;;;;;;;;;;4494640;77;28546;-81
2022/05/03 21:43:59;;;;;;;11.45;8.18;;;;;;;;;;4490060;77;28459;-82
2022/05/03 21:50:00;;;;;;;12.53;8.15;;;;;;;;;;4494588;77;28535;-84
2022/05/03 21:56:01;;;;;;;12.78;9.03;;;;;;;;;;4492261;78;28565;-86
2022/05/03 22:02:01;;;;;;;12.20;9.10;;;;;;;;;;4499314;77;28560;-84
2022/05/03 22:08:03;;;;;;;11.50;8.55;;;;;;;;;;4494615;77;28505;-84
2022/05/03 22:14:04;;;;;;;13.45;8.70;;;;;;;;;;4493829;77;28463;-86
2022/05/03 22:20:05;;;;;;;13.65;8.95;;;;;;;;;;4480084;77;28521;-80
2022/05/03 22:26:06;;;;;;;15.53;9.98;;;;;;;;;;4470716;77;28510;-81
2022/05/03 22:32:08;;;;;;;14.15;9.55;;;;;;;;;;4490835;77;28971;-81
2022/05/03 22:38:09;;;;;;;13.62;9.18;;;;;;;;;;4454842;77;28512;-82
2022/05/03 22:44:09;;;;;;;12.33;8.98;;;;;;;;;;4494184;77;28565;-81
2022/05/03 22:50:11;;;;;;;14.90;9.30;;;;;;;;;;4464832;77;29227;-81
2022/05/03 22:56:12;;;;;;;12.07;9.10;;;;;;;;;;4487127;77;28452;-82
2022/05/03 23:02:13;;;;;;;13.95;8.88;;;;;;;;;;4495449;77;28478;-81
2022/05/03 23:08:14;;;;;;;13.40;9.05;;;;;;;;;;4476868;77;28551;-82
2022/05/03 23:14:15;;;;;;;13.72;9.65;;;;;;;;;;4484208;77;28531;-80
2022/05/03 23:20:16;;;;;;;12.95;9.65;;;;;;;;;;4477017;77;28569;-79
2022/05/03 23:26:17;;;;;;;13.35;9.13;;;;;;;;;;4496512;77;28533;-79
2022/05/03 23:32:18;;;;;;;12.88;9.18;;;;;;;;;;4478644;77;28540;-84
2022/05/03 23:38:19;;;;;;;15.90;9.73;;;;;;;;;;4486047;77;29482;-83
2022/05/03 23:44:20;;;;;;;13.98;9.13;;;;;;;;;;4486614;77;28460;-82
2022/05/03 23:50:21;;;;;;;12.82;9.23;;;;;;;;;;4492833;77;28539;-84
2022/05/03 23:56:21;;;;;;;13.72;9.35;;;;;;;;;;4491046;77;28470;-81
